createdAt,value
2023-10-10T00:02:26.250Z,69.14
2023-10-10T00:04:56.196Z,69.27
2023-10-10T00:07:28.893Z,69.23
2023-10-10T00:09:57.540Z,69.54
2023-10-10T00:12:30.540Z,69.56
2023-10-10T00:14:59.736Z,69.51
2023-10-10T00:17:36.173Z,69.37
2023-10-10T00:20:18.794Z,69.29
2023-10-10T00:22:49.496Z,69.25
2023-10-10T00:25:29.785Z,69.15
2023-10-10T00:28:01.160Z,69.10
2023-10-10T00:30:35.051Z,69.05
2023-10-10T00:33:04.935Z,68.88
2023-10-10T00:35:33.706Z,68.70
2023-10-10T00:38:06.600Z,68.48
2023-10-10T00:40:39.992Z,68.38
2023-10-10T00:43:14.976Z,68.27
2023-10-10T00:45:53.209Z,68.55
2023-10-10T00:48:24.692Z,68.59
2023-10-10T00:51:07.060Z,68.75
2023-10-10T00:53:40.480Z,68.67
2023-10-10T00:56:09.419Z,68.75
2023-10-10T00:58:39.137Z,68.77
2023-10-10T01:01:11.586Z,68.90
2023-10-10T01:03:43.412Z,68.92
2023-10-10T01:06:25.531Z,68.87
2023-10-10T01:09:00.815Z,68.63
2023-10-10T01:11:30.558Z,69.01
2023-10-10T01:13:59.115Z,69.11
2023-10-10T01:16:28.679Z,69.15
2023-10-10T01:18:59.168Z,69.24
2023-10-10T01:21:34.385Z,69.26
2023-10-10T01:24:07.689Z,69.17
2023-10-10T01:26:39.755Z,69.28
2023-10-10T01:29:24.942Z,69.37
2023-10-10T01:31:54.147Z,69.43
2023-10-10T01:34:44.792Z,69.26
2023-10-10T01:37:30.354Z,69.29
2023-10-10T01:40:13.334Z,69.39
2023-10-10T01:42:48.197Z,69.46
2023-10-10T01:45:20.395Z,69.41
2023-10-10T01:47:58.988Z,69.27
2023-10-10T01:50:28.900Z,69.03
2023-10-10T01:52:59.363Z,68.84
2023-10-10T01:55:28.837Z,68.86
2023-10-10T01:57:58.894Z,68.67
2023-10-10T02:00:28.664Z,68.40
2023-10-10T02:02:58.209Z,68.29
2023-10-10T02:05:43.902Z,67.79
2023-10-10T02:08:18.469Z,67.38
2023-10-10T02:10:51.506Z,67.30
2023-10-10T02:13:21.266Z,67.20
2023-10-10T02:15:49.702Z,67.29
2023-10-10T02:18:25.213Z,67.24
2023-10-10T02:20:54.198Z,67.35
2023-10-10T02:23:33.015Z,67.34
2023-10-10T02:26:24.972Z,67.58
2023-10-10T02:29:13.972Z,67.51
2023-10-10T02:31:47.093Z,67.80
2023-10-10T02:34:15.741Z,67.54
2023-10-10T02:36:44.159Z,67.54
2023-10-10T02:39:28.862Z,67.57
2023-10-10T02:42:14.657Z,67.70
2023-10-10T02:44:48.461Z,67.71
2023-10-10T02:47:31.997Z,67.87
2023-10-10T02:50:10.979Z,67.78
2023-10-10T02:52:46.612Z,67.87
2023-10-10T02:55:23.987Z,67.90
2023-10-10T02:57:55.382Z,67.93
2023-10-10T03:00:30.462Z,67.79
2023-10-10T03:03:00.530Z,67.83
2023-10-10T03:05:42.152Z,67.87
2023-10-10T03:08:15.177Z,67.76
2023-10-10T03:10:55.117Z,67.79
2023-10-10T03:13:37.405Z,67.86
2023-10-10T03:16:37.507Z,67.94
2023-10-10T03:19:23.445Z,68.14
2023-10-10T03:21:59.891Z,68.28
2023-10-10T03:24:51.105Z,68.45
2023-10-10T03:27:37.906Z,68.18
2023-10-10T03:30:20.259Z,68.39
2023-10-10T03:33:01.853Z,68.41
2023-10-10T03:35:53.413Z,68.40
2023-10-10T03:38:46.958Z,68.38
2023-10-10T03:41:33.221Z,68.40
2023-10-10T03:44:20.363Z,68.36
2023-10-10T03:47:06.645Z,68.37
2023-10-10T03:49:52.648Z,68.24
2023-10-10T03:52:38.340Z,68.41
2023-10-10T03:55:24.988Z,68.25
2023-10-10T03:58:10.912Z,68.32
2023-10-10T04:00:58.188Z,68.32
2023-10-10T04:03:44.119Z,68.31
2023-10-10T04:06:29.993Z,68.27
2023-10-10T04:09:16.054Z,68.23
2023-10-10T04:12:01.990Z,68.13
2023-10-10T04:14:47.826Z,68.31
2023-10-10T04:17:40.399Z,68.20
2023-10-10T04:20:27.341Z,68.11
2023-10-10T04:23:13.398Z,68.34
2023-10-10T04:25:59.560Z,68.26
2023-10-10T04:28:45.332Z,68.35
2023-10-10T04:31:31.318Z,68.47
2023-10-10T04:34:18.724Z,68.26
2023-10-10T04:37:04.392Z,68.26
2023-10-10T04:39:50.390Z,68.28
2023-10-10T04:42:36.323Z,68.43
2023-10-10T04:45:22.855Z,68.56
2023-10-10T04:48:08.912Z,68.48
2023-10-10T04:50:56.261Z,68.52
2023-10-10T04:53:42.142Z,68.66
2023-10-10T04:56:30.183Z,68.55
2023-10-10T04:59:16.059Z,68.62
2023-10-10T05:02:02.187Z,68.56
2023-10-10T05:04:56.808Z,68.34
2023-10-10T05:07:44.228Z,68.21
2023-10-10T05:10:30.217Z,68.38
2023-10-10T05:13:16.126Z,68.43
2023-10-10T05:16:02.335Z,68.37
2023-10-10T05:18:50.519Z,68.37
2023-10-10T05:21:36.634Z,68.31
2023-10-10T05:24:10.305Z,68.32
2023-10-10T05:26:47.883Z,68.26
2023-10-10T05:29:20.877Z,68.27
2023-10-10T05:31:52.226Z,68.10
2023-10-10T05:34:21.785Z,68.00
2023-10-10T05:36:50.358Z,67.69
2023-10-10T05:39:22.451Z,67.53
2023-10-10T05:41:55.723Z,67.47
2023-10-10T05:44:24.700Z,67.65
2023-10-10T05:46:54.112Z,67.18
2023-10-10T05:49:23.709Z,66.58
2023-10-10T05:51:53.154Z,66.32
2023-10-10T05:54:23.090Z,66.03
2023-10-10T05:56:51.777Z,65.80
2023-10-10T05:59:20.245Z,65.24
2023-10-10T06:01:48.707Z,64.80
2023-10-10T06:04:17.322Z,64.12
2023-10-10T06:06:47.467Z,63.91
2023-10-10T06:09:21.000Z,63.75
2023-10-10T06:11:51.080Z,62.98
2023-10-10T06:14:22.715Z,62.14
2023-10-10T06:16:51.357Z,62.02
2023-10-10T06:19:22.586Z,62.04
2023-10-10T06:21:57.071Z,61.76
2023-10-10T06:24:27.221Z,61.16
2023-10-10T06:27:01.572Z,61.08
2023-10-10T06:29:31.365Z,61.20
2023-10-10T06:31:59.877Z,61.47
2023-10-10T06:34:36.000Z,61.10
2023-10-10T06:37:09.151Z,61.48
2023-10-10T06:39:55.703Z,61.41
2023-10-10T06:42:29.689Z,60.97
2023-10-10T06:45:03.543Z,61.09
2023-10-10T06:47:33.738Z,60.52
2023-10-10T06:50:12.076Z,59.21
2023-10-10T06:52:40.916Z,59.07
2023-10-10T06:55:13.822Z,58.29
2023-10-10T06:57:47.175Z,58.30
2023-10-10T07:00:29.202Z,58.78
2023-10-10T07:02:59.284Z,58.36
2023-10-10T07:05:29.457Z,58.45
2023-10-10T07:08:01.044Z,58.75
2023-10-10T07:10:36.369Z,59.37
2023-10-10T07:13:12.483Z,59.72
2023-10-10T07:15:42.419Z,59.99
2023-10-10T07:18:16.045Z,60.28
2023-10-10T07:21:04.541Z,61.02
2023-10-10T07:24:03.986Z,61.77
2023-10-10T07:26:42.373Z,62.49
2023-10-10T07:29:29.692Z,62.88
2023-10-10T07:32:06.432Z,62.74
2023-10-10T07:34:40.348Z,62.41
2023-10-10T07:37:10.261Z,62.71
2023-10-10T07:39:56.374Z,62.68
2023-10-10T07:42:30.925Z,62.84
2023-10-10T07:45:04.341Z,63.11
2023-10-10T07:47:34.303Z,63.19
2023-10-10T07:50:10.220Z,63.09
2023-10-10T07:52:40.554Z,62.88
2023-10-10T07:55:16.649Z,62.55
2023-10-10T07:57:57.800Z,62.59
2023-10-10T08:00:36.883Z,62.76
2023-10-10T08:03:06.870Z,62.67
2023-10-10T08:05:36.012Z,63.08
2023-10-10T08:08:06.641Z,63.26
2023-10-10T08:10:39.724Z,63.13
2023-10-10T08:13:11.533Z,63.12
2023-10-10T08:15:52.454Z,63.31
2023-10-10T08:18:42.238Z,63.03
2023-10-10T08:21:15.254Z,63.31
2023-10-10T08:23:47.586Z,63.49
2023-10-10T08:26:20.155Z,63.80
2023-10-10T08:28:50.148Z,63.40
2023-10-10T08:31:20.506Z,63.35
2023-10-10T08:33:49.004Z,63.57
2023-10-10T08:36:25.523Z,63.87
2023-10-10T08:38:55.731Z,63.68
2023-10-10T08:41:27.750Z,64.08
2023-10-10T08:44:02.782Z,63.96
2023-10-10T08:46:42.153Z,64.15
2023-10-10T08:49:11.458Z,64.31
2023-10-10T08:51:41.242Z,64.33
2023-10-10T08:54:12.277Z,64.40
2023-10-10T08:56:41.841Z,64.93
2023-10-10T08:59:13.125Z,64.79
2023-10-10T09:01:43.533Z,64.90
2023-10-10T09:04:20.346Z,64.50
2023-10-10T09:06:59.517Z,63.86
2023-10-10T09:09:39.210Z,64.06
2023-10-10T09:12:15.754Z,63.52
2023-10-10T09:14:51.455Z,63.58
2023-10-10T09:17:30.780Z,63.62
2023-10-10T09:19:59.915Z,63.38
2023-10-10T09:22:35.755Z,63.10
2023-10-10T09:25:19.409Z,63.04
2023-10-10T09:28:00.440Z,63.08
2023-10-10T09:30:35.981Z,63.01
2023-10-10T09:33:23.847Z,62.93
2023-10-10T09:35:59.453Z,62.79
2023-10-10T09:38:35.529Z,62.98
2023-10-10T09:41:15.966Z,62.63
2023-10-10T09:44:02.357Z,62.78
2023-10-10T09:46:59.929Z,62.68
2023-10-10T09:49:41.509Z,61.90
2023-10-10T09:52:31.901Z,61.56
2023-10-10T09:55:28.180Z,61.59
2023-10-10T09:58:02.320Z,61.62
2023-10-10T10:00:47.030Z,61.44
2023-10-10T10:03:37.202Z,61.22
2023-10-10T10:06:46.064Z,60.76
2023-10-10T10:10:02.822Z,60.71
2023-10-10T10:13:15.228Z,58.49
2023-10-10T10:16:09.884Z,58.67
2023-10-10T10:18:46.782Z,58.47
2023-10-10T10:21:30.084Z,58.26
2023-10-10T10:24:16.929Z,57.68
2023-10-10T10:26:46.238Z,57.56
2023-10-10T10:29:23.798Z,57.36
2023-10-10T10:32:00.298Z,56.88
2023-10-10T10:34:36.735Z,56.75
2023-10-10T10:37:14.277Z,56.40
2023-10-10T10:40:08.618Z,55.82
2023-10-10T10:42:38.690Z,54.61
2023-10-10T10:45:35.042Z,54.72
2023-10-10T10:48:09.876Z,54.10
2023-10-10T10:50:42.221Z,53.40
2023-10-10T10:53:36.234Z,52.20
2023-10-10T10:56:23.593Z,51.84
2023-10-10T10:59:09.866Z,51.56
2023-10-10T11:01:52.595Z,51.32
2023-10-10T11:04:41.709Z,50.48
2023-10-10T11:07:10.319Z,49.64
2023-10-10T11:09:44.882Z,49.06
2023-10-10T11:12:14.318Z,49.18
2023-10-10T11:14:47.374Z,49.04
2023-10-10T11:17:20.239Z,46.03
2023-10-10T11:19:55.193Z,46.05
2023-10-10T11:22:40.624Z,44.02
2023-10-10T11:25:20.670Z,44.00
2023-10-10T11:27:50.398Z,43.90
2023-10-10T11:30:25.658Z,42.63
2023-10-10T11:33:15.464Z,41.97
2023-10-10T11:35:48.036Z,43.12
2023-10-10T11:38:35.348Z,42.74
2023-10-10T11:41:09.783Z,42.89
2023-10-10T11:44:03.055Z,43.04
2023-10-10T11:46:32.736Z,40.30
2023-10-10T11:49:02.412Z,38.97
2023-10-10T11:51:37.373Z,40.02
2023-10-10T11:54:06.518Z,40.57
2023-10-10T11:56:36.638Z,38.86
2023-10-10T11:59:11.263Z,37.43
2023-10-10T12:01:53.388Z,37.02
2023-10-10T12:04:32.255Z,36.75
2023-10-10T12:07:05.388Z,35.03
2023-10-10T12:09:35.278Z,35.40
2023-10-10T12:12:05.406Z,36.18
2023-10-10T12:14:34.053Z,36.55
2023-10-10T12:17:07.004Z,36.62
2023-10-10T12:19:45.191Z,37.38
2023-10-10T12:22:14.924Z,38.58
2023-10-10T12:24:43.420Z,38.29
2023-10-10T12:27:14.870Z,39.22
2023-10-10T12:29:43.450Z,39.38
2023-10-10T12:32:20.455Z,40.18
2023-10-10T12:34:49.709Z,40.87
2023-10-10T12:37:18.355Z,41.07
2023-10-10T12:39:47.699Z,41.21
2023-10-10T12:42:17.689Z,39.49
2023-10-10T12:44:49.919Z,40.56
2023-10-10T12:47:20.158Z,40.96
2023-10-10T12:49:48.624Z,40.50
2023-10-10T12:52:18.983Z,39.65
2023-10-10T12:54:58.365Z,39.68
2023-10-10T12:57:34.528Z,40.19
2023-10-10T13:00:17.073Z,40.46
2023-10-10T13:02:45.857Z,41.11
2023-10-10T13:05:14.537Z,41.40
2023-10-10T13:07:44.715Z,42.18
2023-10-10T13:10:14.495Z,41.88
2023-10-10T13:12:52.901Z,41.21
2023-10-10T13:15:29.204Z,41.35
2023-10-10T13:18:13.214Z,40.70
2023-10-10T13:20:42.762Z,40.58
2023-10-10T13:23:11.326Z,40.86
2023-10-10T13:25:40.748Z,40.46
2023-10-10T13:28:18.417Z,40.75
2023-10-10T13:30:47.897Z,40.93
2023-10-10T13:33:16.794Z,41.64
2023-10-10T13:35:46.068Z,41.49
2023-10-10T13:38:14.792Z,41.16
2023-10-10T13:40:47.239Z,40.67
2023-10-10T13:43:19.148Z,40.58
2023-10-10T13:45:49.368Z,40.09
2023-10-10T13:48:19.591Z,40.85
2023-10-10T13:50:52.308Z,40.87
2023-10-10T13:53:21.830Z,41.03
2023-10-10T13:55:52.245Z,41.20
2023-10-10T13:58:22.264Z,41.14
2023-10-10T14:01:15.181Z,41.19
2023-10-10T14:03:47.792Z,40.86
2023-10-10T14:06:18.062Z,40.53
2023-10-10T14:08:48.898Z,40.30
2023-10-10T14:11:23.091Z,40.68
2023-10-10T14:13:55.134Z,40.18
2023-10-10T14:16:26.122Z,39.92
2023-10-10T14:18:54.596Z,39.67
2023-10-10T14:21:26.370Z,39.53
2023-10-10T14:24:06.083Z,38.67
2023-10-10T14:26:37.136Z,39.37
2023-10-10T14:29:07.646Z,39.32
2023-10-10T14:31:43.842Z,39.69
2023-10-10T14:34:21.227Z,40.20
2023-10-10T14:36:53.202Z,39.76
2023-10-10T14:39:33.381Z,39.70
2023-10-10T14:42:02.467Z,39.95
2023-10-10T14:44:33.244Z,39.74
2023-10-10T14:47:05.780Z,40.62
2023-10-10T14:49:36.142Z,40.87
2023-10-10T14:52:05.525Z,40.66
2023-10-10T14:54:39.040Z,40.59
2023-10-10T14:57:08.381Z,40.20
2023-10-10T14:59:38.405Z,40.97
2023-10-10T15:02:06.960Z,41.14
2023-10-10T15:04:36.836Z,41.42
2023-10-10T15:07:05.987Z,41.60
2023-10-10T15:09:36.730Z,41.92
2023-10-10T15:12:08.364Z,42.05
2023-10-10T15:14:38.242Z,41.60
2023-10-10T15:17:09.035Z,42.07
2023-10-10T15:19:37.507Z,42.25
2023-10-10T15:22:08.516Z,42.08
2023-10-10T15:24:38.043Z,42.38
2023-10-10T15:27:07.914Z,42.44
2023-10-10T15:29:40.795Z,42.24
2023-10-10T15:32:09.419Z,42.37
2023-10-10T15:34:41.276Z,42.53
2023-10-10T15:37:16.178Z,42.79
2023-10-10T15:39:44.719Z,42.47
2023-10-10T15:42:13.310Z,42.75
2023-10-10T15:44:43.235Z,42.58
2023-10-10T15:47:11.721Z,43.23
2023-10-10T15:49:40.584Z,42.93
2023-10-10T15:52:09.356Z,43.14
2023-10-10T15:54:37.769Z,42.94
2023-10-10T15:57:10.445Z,43.46
2023-10-10T15:59:43.526Z,43.12
2023-10-10T16:02:15.328Z,43.64
2023-10-10T16:04:46.252Z,43.52
2023-10-10T16:07:17.724Z,43.69
2023-10-10T16:09:47.018Z,43.83
2023-10-10T16:12:16.435Z,43.62
2023-10-10T16:14:44.905Z,44.35
2023-10-10T16:17:17.390Z,44.23
2023-10-10T16:19:47.097Z,44.08
2023-10-10T16:22:16.288Z,44.40
2023-10-10T16:24:44.975Z,44.38
2023-10-10T16:27:14.007Z,44.50
2023-10-10T16:29:42.834Z,44.55
2023-10-10T16:32:19.344Z,44.76
2023-10-10T16:34:49.847Z,44.88
2023-10-10T16:37:20.616Z,45.08
2023-10-10T16:39:50.032Z,45.13
2023-10-10T16:42:20.926Z,45.02
2023-10-10T16:44:52.413Z,45.60
2023-10-10T16:47:21.864Z,45.68
2023-10-10T16:49:53.656Z,45.85
2023-10-10T16:52:27.278Z,46.11
2023-10-10T16:54:58.271Z,46.34
2023-10-10T16:57:27.518Z,46.61
2023-10-10T16:59:57.935Z,46.63
2023-10-10T17:02:30.504Z,46.82
2023-10-10T17:05:06.133Z,47.24
2023-10-10T17:07:35.714Z,47.14
2023-10-10T17:10:07.263Z,47.39
2023-10-10T17:12:36.632Z,47.45
2023-10-10T17:15:15.148Z,47.60
2023-10-10T17:17:45.900Z,47.82
2023-10-10T17:20:18.302Z,47.63
2023-10-10T17:22:49.565Z,47.88
2023-10-10T17:25:20.527Z,48.16
2023-10-10T17:27:53.398Z,48.24
2023-10-10T17:30:23.085Z,48.27
2023-10-10T17:32:52.927Z,48.45
2023-10-10T17:35:24.782Z,48.60
2023-10-10T17:37:55.500Z,48.54
2023-10-10T17:40:25.395Z,48.77
2023-10-10T17:42:58.921Z,48.85
2023-10-10T17:45:28.297Z,48.99
2023-10-10T17:47:58.143Z,48.72
2023-10-10T17:50:33.067Z,49.08
2023-10-10T17:53:01.565Z,49.20
2023-10-10T17:55:30.184Z,49.22
2023-10-10T17:57:58.598Z,49.32
2023-10-10T18:00:27.103Z,49.22
2023-10-10T18:02:57.344Z,49.25
2023-10-10T18:05:27.299Z,49.59
2023-10-10T18:07:59.287Z,49.35
2023-10-10T18:10:27.702Z,49.72
2023-10-10T18:12:56.143Z,49.65
2023-10-10T18:15:25.272Z,50.03
2023-10-10T18:17:56.914Z,49.78
2023-10-10T18:20:27.635Z,50.40
2023-10-10T18:22:56.072Z,50.34
2023-10-10T18:25:27.172Z,50.51
2023-10-10T18:27:55.675Z,50.29
2023-10-10T18:30:24.395Z,50.90
2023-10-10T18:32:53.076Z,50.67
2023-10-10T18:35:27.961Z,50.91
2023-10-10T18:37:58.522Z,50.97
2023-10-10T18:40:26.942Z,51.11
2023-10-10T18:42:55.390Z,51.73
2023-10-10T18:45:24.221Z,51.78
2023-10-10T18:47:52.742Z,51.98
2023-10-10T18:50:22.825Z,51.87
2023-10-10T18:52:52.209Z,52.21
2023-10-10T18:55:26.247Z,52.31
2023-10-10T18:57:58.470Z,51.99
2023-10-10T19:00:28.379Z,52.18
2023-10-10T19:02:59.067Z,52.66
2023-10-10T19:05:29.391Z,52.65
2023-10-10T19:08:00.992Z,52.77
2023-10-10T19:10:31.148Z,52.81
2023-10-10T19:13:00.210Z,52.96
2023-10-10T19:15:29.064Z,52.57
2023-10-10T19:18:00.271Z,52.65
2023-10-10T19:20:35.962Z,52.82
2023-10-10T19:23:06.364Z,52.55
2023-10-10T19:25:36.291Z,52.53
2023-10-10T19:28:05.820Z,52.67
2023-10-10T19:30:40.593Z,52.87
2023-10-10T19:33:09.473Z,52.49
2023-10-10T19:35:44.622Z,52.58
2023-10-10T19:38:13.966Z,52.65
2023-10-10T19:40:45.339Z,52.58
2023-10-10T19:43:15.075Z,52.79
2023-10-10T19:45:46.590Z,52.17
2023-10-10T19:48:17.557Z,52.63
2023-10-10T19:50:49.008Z,52.19
2023-10-10T19:53:20.286Z,52.19
2023-10-10T19:55:50.795Z,52.48
2023-10-10T19:58:22.186Z,52.18
2023-10-10T20:00:51.000Z,52.21
2023-10-10T20:03:23.396Z,51.90
2023-10-10T20:05:53.945Z,52.29
2023-10-10T20:08:22.796Z,51.94
2023-10-10T20:10:52.994Z,52.18
2023-10-10T20:13:23.359Z,52.26
2023-10-10T20:15:53.953Z,51.91
2023-10-10T20:18:22.636Z,52.36
2023-10-10T20:20:53.132Z,51.91
2023-10-10T20:23:22.545Z,52.55
2023-10-10T20:25:53.279Z,52.42
2023-10-10T20:28:21.674Z,52.82
2023-10-10T20:30:50.086Z,52.55
2023-10-10T20:33:19.892Z,53.08
2023-10-10T20:35:48.757Z,53.00
2023-10-10T20:38:20.615Z,53.02
2023-10-10T20:40:49.709Z,53.05
2023-10-10T20:43:19.955Z,53.37
2023-10-10T20:45:48.605Z,53.29
2023-10-10T20:48:22.989Z,53.85
2023-10-10T20:50:52.096Z,53.76
2023-10-10T20:53:20.899Z,53.92
2023-10-10T20:55:51.120Z,53.59
2023-10-10T20:58:20.970Z,54.19
2023-10-10T21:00:50.207Z,54.30
2023-10-10T21:03:18.944Z,54.08
2023-10-10T21:05:48.713Z,54.03
2023-10-10T21:08:18.701Z,54.19
2023-10-10T21:10:47.609Z,54.34
2023-10-10T21:13:17.290Z,54.24
2023-10-10T21:15:47.135Z,54.48
2023-10-10T21:18:15.641Z,54.45
2023-10-10T21:20:56.857Z,54.73
2023-10-10T21:23:30.942Z,54.37
2023-10-10T21:25:59.399Z,54.67
2023-10-10T21:28:27.897Z,54.50
2023-10-10T21:30:57.997Z,54.71
2023-10-10T21:33:27.133Z,54.62
2023-10-10T21:35:55.756Z,54.69
2023-10-10T21:38:24.289Z,54.80
2023-10-10T21:40:52.756Z,54.88
2023-10-10T21:43:21.170Z,55.00
2023-10-10T21:45:49.540Z,54.93
2023-10-10T21:48:19.500Z,54.89
2023-10-10T21:50:48.349Z,54.49
2023-10-10T21:53:17.061Z,54.85
2023-10-10T21:55:45.514Z,54.62
2023-10-10T21:58:15.062Z,54.39
2023-10-10T22:00:56.535Z,54.81
2023-10-10T22:03:28.941Z,54.74
2023-10-10T22:05:58.070Z,54.28
2023-10-10T22:08:27.708Z,54.76
2023-10-10T22:10:58.139Z,54.35
2023-10-10T22:13:28.864Z,54.69
2023-10-10T22:15:57.448Z,54.55
2023-10-10T22:18:31.290Z,54.50
2023-10-10T22:21:00.695Z,54.50
2023-10-10T22:23:29.265Z,54.45
2023-10-10T22:26:01.370Z,54.34
2023-10-10T22:28:30.169Z,54.36
2023-10-10T22:31:00.585Z,54.87
2023-10-10T22:33:32.605Z,54.72
2023-10-10T22:36:15.924Z,54.52
2023-10-10T22:38:46.603Z,54.63
2023-10-10T22:41:15.867Z,54.61
2023-10-10T22:43:45.769Z,54.73
2023-10-10T22:46:14.675Z,55.02
2023-10-10T22:48:45.209Z,54.70
2023-10-10T22:51:14.491Z,55.28
2023-10-10T22:53:47.459Z,55.20
2023-10-10T22:56:19.356Z,55.02
2023-10-10T22:58:48.323Z,55.29
2023-10-10T23:01:19.732Z,55.14
2023-10-10T23:03:49.605Z,55.04
2023-10-10T23:06:19.273Z,54.80
2023-10-10T23:08:49.674Z,54.83
2023-10-10T23:11:18.368Z,55.18
2023-10-10T23:13:46.807Z,55.27
2023-10-10T23:16:18.859Z,54.97
2023-10-10T23:18:48.868Z,55.35
2023-10-10T23:21:20.546Z,55.29
2023-10-10T23:23:49.595Z,55.34
2023-10-10T23:26:21.489Z,55.34
2023-10-10T23:28:53.567Z,55.66
2023-10-10T23:31:22.164Z,55.53
2023-10-10T23:33:52.187Z,55.42
2023-10-10T23:36:20.686Z,55.68
2023-10-10T23:38:50.204Z,55.57
2023-10-10T23:41:20.669Z,55.84
2023-10-10T23:43:49.178Z,55.87
2023-10-10T23:46:23.625Z,55.68
2023-10-10T23:48:58.489Z,55.94
2023-10-10T23:51:28.053Z,55.99
2023-10-10T23:53:59.638Z,55.99
2023-10-10T23:56:34.481Z,56.03
2023-10-10T23:59:04.224Z,56.10
